Skip Navigation Links Skip Navigation Links

Current Weather

London City Apt., London

For information only: do not use for flight planning or navigation.
Latest weather
Observation time Tuesday, September 28, 2021 10:50 AM BST
Local time Tuesday, September 28, 2021 11:05 AM BST
Flight conditions Visual Meteorological Conditions
Winds
Wind direction South (180°)
Winds variable from 130° to 220°
Wind speed 10 mph
Visibility 6.2 mi.
Sky condition
Ceiling unlimited
Cloud layer few clouds 3,700 ft.
Temperature 59°F
Dewpoint 52°F
Altimeter 30.06 in.Hg
Derived measurements
Relative humidity 77%
Density altitude 24 ft.
Remarks
Fully automated report.
METAR EGLC 280950Z AUTO 18009KT 130V220 9999 FEW037/// //////CB 15/11 Q1018

Settings

Location code

InnerDrive.Weather 4.0.6770.0 Release CLR 4.0.30319.42000
Copyright ©2018 Inner Drive Technology. All rights reserved. Portions Copyright ©1986-2018 David Braverman.

Find weather

Site navigation


Skip Navigation Links

Place info

Page info

PayPal - The safer, easier way to pay online!

Return home.

Copyright ©2021 Inner Drive Technology. Purveyors of fine, hand-crafted computer software. Page printed 2021-09-28T10:05:02 UTC.